createdAt,value
2022-09-10T00:00:53.255Z,97431.75
2022-09-10T00:03:21.218Z,97435.13
2022-09-10T00:05:48.473Z,97428.72
2022-09-10T00:08:16.344Z,97425.69
2022-09-10T00:10:46.936Z,97425.50
2022-09-10T00:13:14.996Z,97422.78
2022-09-10T00:15:43.506Z,97427.44
2022-09-10T00:18:10.538Z,97434.97
2022-09-10T00:20:43.328Z,97432.88
2022-09-10T00:23:10.404Z,97436.88
2022-09-10T00:25:38.953Z,97428.72
2022-09-10T00:28:08.629Z,97444.41
2022-09-10T00:30:40.570Z,97436.88
2022-09-10T00:33:08.369Z,97439.94
2022-09-10T00:35:36.029Z,97441.53
2022-09-10T00:38:03.320Z,97435.00
2022-09-10T00:40:31.594Z,97438.81
2022-09-10T00:42:58.778Z,97427.53
2022-09-10T00:45:29.398Z,97434.44
2022-09-10T00:48:00.486Z,97433.50
2022-09-10T00:50:30.074Z,97434.59
2022-09-10T00:53:01.769Z,97445.31
2022-09-10T00:55:29.143Z,97441.34
2022-09-10T00:58:00.770Z,97451.59
2022-09-10T01:00:29.076Z,97442.50
2022-09-10T01:02:56.397Z,97449.34
2022-09-10T01:05:24.755Z,97445.34
2022-09-10T01:07:53.195Z,97454.78
2022-09-10T01:10:23.732Z,97443.91
2022-09-10T01:13:19.483Z,97440.06
2022-09-10T01:15:54.679Z,97441.19
2022-09-10T01:18:31.931Z,97436.06
2022-09-10T01:21:19.957Z,97437.66
2022-09-10T01:24:19.552Z,97445.66
2022-09-10T01:27:02.358Z,97433.69
2022-09-10T01:29:37.413Z,97429.97
2022-09-10T01:32:12.080Z,97434.31
2022-09-10T01:34:44.593Z,97428.34
2022-09-10T01:37:17.311Z,97439.97
2022-09-10T01:39:45.570Z,97438.81
2022-09-10T01:42:12.474Z,97438.31
2022-09-10T01:44:43.925Z,97433.72
2022-09-10T01:47:17.783Z,97433.38
2022-09-10T01:49:54.619Z,97440.44
2022-09-10T01:52:28.782Z,97430.66
2022-09-10T01:55:06.534Z,97428.56
2022-09-10T01:57:43.136Z,97433.03
2022-09-10T02:00:14.032Z,97419.44
2022-09-10T02:02:48.232Z,97424.75
2022-09-10T02:05:18.136Z,97430.88
2022-09-10T02:07:46.971Z,97421.41
2022-09-10T02:10:13.872Z,97418.41
2022-09-10T02:12:41.025Z,97412.16
2022-09-10T02:15:10.624Z,97396.84
2022-09-10T02:17:39.880Z,97400.38
2022-09-10T02:20:10.985Z,97400.03
2022-09-10T02:22:40.683Z,97400.03
2022-09-10T02:25:09.964Z,97397.66
2022-09-10T02:27:38.358Z,97399.72
2022-09-10T02:30:07.250Z,97399.09
2022-09-10T02:32:34.355Z,97402.63
2022-09-10T02:35:02.613Z,97403.91
2022-09-10T02:37:29.496Z,97403.59
2022-09-10T02:39:56.396Z,97402.47
2022-09-10T02:42:23.644Z,97399.91
2022-09-10T02:44:50.471Z,97398.50
2022-09-10T02:47:18.290Z,97403.63
2022-09-10T02:49:45.980Z,97404.09
2022-09-10T02:52:14.278Z,97396.41
2022-09-10T02:54:41.117Z,97402.66
2022-09-10T02:57:07.946Z,97400.56
2022-09-10T02:59:34.813Z,97395.28
2022-09-10T03:02:01.659Z,97399.63
2022-09-10T03:04:28.548Z,97402.78
2022-09-10T03:06:55.444Z,97397.50
2022-09-10T03:09:23.725Z,97398.16
2022-09-10T03:11:50.833Z,97396.91
2022-09-10T03:14:22.281Z,97397.03
2022-09-10T03:16:49.533Z,97394.94
2022-09-10T03:19:17.544Z,97407.44
2022-09-10T03:21:47.665Z,97397.81
2022-09-10T03:24:15.507Z,97405.81
2022-09-10T03:26:44.481Z,97403.91
2022-09-10T03:29:14.149Z,97405.81
2022-09-10T03:31:41.140Z,97409.97
2022-09-10T03:34:08.898Z,97402.28
2022-09-10T03:36:35.727Z,97409.66
2022-09-10T03:39:03.488Z,97398.63
2022-09-10T03:41:31.785Z,97402.75
2022-09-10T03:44:00.075Z,97405.97
2022-09-10T03:46:27.241Z,97404.38
2022-09-10T03:48:55.519Z,97402.75
2022-09-10T03:51:23.295Z,97393.34
2022-09-10T03:53:50.253Z,97394.13
2022-09-10T03:56:20.109Z,97396.66
2022-09-10T03:58:49.318Z,97388.69
2022-09-10T04:01:18.256Z,97389.34
2022-09-10T04:03:45.197Z,97389.91
2022-09-10T04:06:12.636Z,97391.03
2022-09-10T04:08:39.764Z,97396.66
2022-09-10T04:11:06.911Z,97402.59
2022-09-10T04:13:33.895Z,97395.34
2022-09-10T04:16:01.160Z,97395.03
2022-09-10T04:18:29.557Z,97393.13
2022-09-10T04:20:56.495Z,97395.84
2022-09-10T04:23:23.369Z,97394.38
2022-09-10T04:25:50.687Z,97388.78
2022-09-10T04:28:17.537Z,97380.13
2022-09-10T04:30:45.035Z,97386.84
2022-09-10T04:33:12.015Z,97391.00
2022-09-10T04:35:40.193Z,97391.50
2022-09-10T04:38:08.098Z,97384.63
2022-09-10T04:40:35.243Z,97395.50
2022-09-10T04:43:02.105Z,97404.75
2022-09-10T04:45:29.668Z,97408.09
2022-09-10T04:47:56.611Z,97406.50
2022-09-10T04:50:23.596Z,97416.25
2022-09-10T04:52:51.861Z,97417.34
2022-09-10T04:55:18.740Z,97419.44
2022-09-10T04:57:45.988Z,97426.16
2022-09-10T05:00:13.556Z,97425.78
2022-09-10T05:02:40.385Z,97426.13
2022-09-10T05:05:08.427Z,97425.13
2022-09-10T05:07:35.288Z,97424.94
2022-09-10T05:10:03.737Z,97422.38
2022-09-10T05:12:31.440Z,97420.16
2022-09-10T05:14:58.240Z,97426.72
2022-09-10T05:17:25.211Z,97424.66
2022-09-10T05:19:52.513Z,97414.91
2022-09-10T05:22:22.016Z,97416.78
2022-09-10T05:24:49.169Z,97419.50
2022-09-10T05:27:17.966Z,97414.91
2022-09-10T05:29:45.291Z,97420.19
2022-09-10T05:32:13.388Z,97409.81
2022-09-10T05:34:40.226Z,97413.81
2022-09-10T05:37:08.832Z,97417.63
2022-09-10T05:39:35.905Z,97417.63
2022-09-10T05:42:03.125Z,97418.13
2022-09-10T05:44:31.353Z,97417.81
2022-09-10T05:46:58.862Z,97424.53
2022-09-10T05:49:25.855Z,97415.91
2022-09-10T05:51:52.730Z,97418.00
2022-09-10T05:54:19.620Z,97420.22
2022-09-10T05:56:46.510Z,97415.09
2022-09-10T05:59:13.370Z,97426.63
2022-09-10T06:01:41.537Z,97417.53
2022-09-10T06:04:09.526Z,97427.94
2022-09-10T06:06:36.362Z,97426.03
2022-09-10T06:09:03.265Z,97423.00
2022-09-10T06:11:30.237Z,97426.56
2022-09-10T06:13:58.127Z,97431.84
2022-09-10T06:16:25.829Z,97434.56
2022-09-10T06:18:54.327Z,97431.22
2022-09-10T06:21:26.145Z,97433.63
2022-09-10T06:23:55.295Z,97423.41
2022-09-10T06:26:22.093Z,97423.09
2022-09-10T06:28:52.029Z,97426.13
2022-09-10T06:31:19.745Z,97426.63
2022-09-10T06:33:48.958Z,97434.13
2022-09-10T06:36:17.246Z,97434.13
2022-09-10T06:38:45.221Z,97431.41
2022-09-10T06:41:13.675Z,97430.63
2022-09-10T06:43:41.666Z,97440.56
2022-09-10T06:46:40.718Z,97441.41
2022-09-10T06:49:02.925Z,97439.03
2022-09-10T06:51:31.314Z,97444.28
2022-09-10T06:53:58.189Z,97443.34
2022-09-10T06:56:25.030Z,97449.75
2022-09-10T06:58:51.941Z,97446.41
2022-09-10T07:01:23.110Z,97444.63
2022-09-10T07:03:55.184Z,97444.97
2022-09-10T07:06:23.223Z,97449.78
2022-09-10T07:08:55.970Z,97448.97
2022-09-10T07:11:23.968Z,97452.16
2022-09-10T07:13:52.214Z,97449.16
2022-09-10T07:16:21.095Z,97445.13
2022-09-10T07:18:50.142Z,97451.69
2022-09-10T07:21:19.442Z,97450.56
2022-09-10T07:23:52.051Z,97457.31
2022-09-10T07:26:20.483Z,97452.66
2022-09-10T07:28:47.824Z,97459.06
2022-09-10T07:31:17.948Z,97470.75
2022-09-10T07:33:46.321Z,97461.66
2022-09-10T07:36:14.386Z,97466.75
2022-09-10T07:38:42.388Z,97469.94
2022-09-10T07:41:14.041Z,97473.13
2022-09-10T07:43:43.783Z,97480.03
2022-09-10T07:46:13.072Z,97483.38
2022-09-10T07:48:41.528Z,97482.09
2022-09-10T07:51:11.152Z,97483.97
2022-09-10T07:53:38.772Z,97488.00
2022-09-10T07:56:07.216Z,97485.44
2022-09-10T07:58:36.032Z,97494.41
2022-09-10T08:01:07.340Z,97486.25
2022-09-10T08:03:34.367Z,97488.63
2022-09-10T08:06:01.815Z,97490.72
2022-09-10T08:08:29.484Z,97494.41
2022-09-10T08:10:57.008Z,97487.69
2022-09-10T08:13:24.040Z,97496.19
2022-09-10T08:15:51.822Z,97493.63
2022-09-10T08:18:19.978Z,97503.41
2022-09-10T08:20:54.088Z,97495.38
2022-09-10T08:23:21.200Z,97496.03
2022-09-10T08:25:51.521Z,97498.09
2022-09-10T08:28:24.813Z,97497.16
2022-09-10T08:30:59.751Z,97504.81
2022-09-10T08:33:29.535Z,97503.56
2022-09-10T08:35:58.718Z,97501.34
2022-09-10T08:38:26.762Z,97510.19
2022-09-10T08:40:54.546Z,97504.22
2022-09-10T08:43:31.557Z,97508.38
2022-09-10T08:46:02.763Z,97507.94
2022-09-10T08:48:35.863Z,97512.09
2022-09-10T08:51:09.611Z,97519.47
2022-09-10T08:53:47.829Z,97514.16
2022-09-10T08:56:17.143Z,97519.59
2022-09-10T08:58:49.157Z,97523.13
2022-09-10T09:01:28.417Z,97514.63
2022-09-10T09:04:00.832Z,97525.50
2022-09-10T09:06:38.279Z,97529.50
2022-09-10T09:09:05.965Z,97529.00
2022-09-10T09:11:42.975Z,97522.13
2022-09-10T09:14:27.969Z,97524.38
2022-09-10T09:17:07.822Z,97523.72
2022-09-10T09:19:44.961Z,97531.13
2022-09-10T09:22:18.849Z,97529.97
2022-09-10T09:24:53.758Z,97529.22
2022-09-10T09:27:21.259Z,97533.03
2022-09-10T09:29:55.000Z,97530.94
2022-09-10T09:32:22.530Z,97530.78
2022-09-10T09:34:54.444Z,97534.31
2022-09-10T09:37:24.885Z,97531.78
2022-09-10T09:40:07.991Z,97537.53
2022-09-10T09:42:45.025Z,97529.25
2022-09-10T09:45:21.039Z,97534.69
2022-09-10T09:47:50.310Z,97526.66
2022-09-10T09:50:18.669Z,97524.75
2022-09-10T09:52:46.505Z,97523.63
2022-09-10T09:55:23.628Z,97522.66
2022-09-10T09:58:13.724Z,97527.63
2022-09-10T10:00:40.778Z,97527.28
2022-09-10T10:03:16.479Z,97535.94
2022-09-10T10:05:45.002Z,97532.13
2022-09-10T10:08:28.991Z,97534.97
2022-09-10T10:10:56.256Z,97531.66
2022-09-10T10:13:24.115Z,97527.66
2022-09-10T10:15:51.709Z,97524.75
2022-09-10T10:18:31.842Z,97528.38
2022-09-10T10:21:14.691Z,97520.28
2022-09-10T10:23:42.164Z,97520.59
2022-09-10T10:26:26.220Z,97519.47
2022-09-10T10:28:58.758Z,97522.97
2022-09-10T10:31:35.342Z,97519.41
2022-09-10T10:34:23.475Z,97522.00
2022-09-10T10:37:03.718Z,97521.50
2022-09-10T10:39:48.241Z,97524.41
2022-09-10T10:42:24.283Z,97518.50
2022-09-10T10:45:01.870Z,97517.38
2022-09-10T10:47:41.626Z,97513.34
2022-09-10T10:50:21.999Z,97513.50
2022-09-10T10:53:04.975Z,97514.78
2022-09-10T10:55:38.995Z,97513.44
2022-09-10T10:58:25.165Z,97517.94
2022-09-10T11:00:56.878Z,97515.06
2022-09-10T11:03:30.269Z,97511.19
2022-09-10T11:06:01.299Z,97508.47
2022-09-10T11:08:34.252Z,97506.78
2022-09-10T11:11:09.044Z,97504.75
2022-09-10T11:13:43.623Z,97505.72
2022-09-10T11:16:16.891Z,97507.50
2022-09-10T11:18:46.620Z,97505.28
2022-09-10T11:21:22.970Z,97505.41
2022-09-10T11:24:00.923Z,97502.16
2022-09-10T11:26:36.173Z,97498.22
2022-09-10T11:29:18.002Z,97499.00
2022-09-10T11:31:50.316Z,62402.38
2022-09-10T11:34:26.521Z,62402.38
2022-09-10T11:36:59.251Z,62402.38
2022-09-10T11:39:33.640Z,62402.38
2022-09-10T11:42:06.910Z,62402.38
2022-09-10T11:44:45.202Z,62402.38
2022-09-10T11:47:18.723Z,62402.38
2022-09-10T11:49:53.468Z,62402.38
2022-09-10T11:52:22.777Z,62402.38
2022-09-10T11:54:52.593Z,62402.38
2022-09-10T11:57:32.692Z,62402.38
2022-09-10T12:00:18.588Z,62402.38
2022-09-10T12:03:30.287Z,62402.38
2022-09-10T12:06:05.524Z,62402.38
2022-09-10T12:08:52.372Z,62402.38
2022-09-10T12:11:29.950Z,62402.38
2022-09-10T12:13:57.638Z,62402.38
2022-09-10T12:16:35.197Z,62402.38
2022-09-10T12:19:07.297Z,62402.38
2022-09-10T12:21:38.152Z,62402.38
2022-09-10T12:24:21.680Z,62402.38
2022-09-10T12:26:50.120Z,62402.38
2022-09-10T12:29:28.088Z,62402.38
2022-09-10T12:32:29.143Z,62402.38
2022-09-10T12:35:45.336Z,62402.38
2022-09-10T12:38:48.225Z,62402.38
2022-09-10T12:41:49.767Z,62402.38
2022-09-10T12:44:54.240Z,62402.38
2022-09-10T12:47:40.155Z,62402.38
2022-09-10T12:50:40.335Z,62402.38
2022-09-10T12:53:54.620Z,62402.38
2022-09-10T12:56:46.256Z,62402.38
2022-09-10T12:59:35.574Z,62402.38
2022-09-10T13:02:03.440Z,62402.38
2022-09-10T13:04:34.803Z,62402.38
2022-09-10T13:07:06.799Z,62402.38
2022-09-10T13:09:37.126Z,62402.38
2022-09-10T13:12:08.276Z,62402.38
2022-09-10T13:14:38.254Z,62402.38
2022-09-10T13:17:05.773Z,62402.38
2022-09-10T13:19:50.705Z,62402.38
2022-09-10T13:23:00.047Z,62402.38
2022-09-10T13:25:36.915Z,62402.38
2022-09-10T13:28:43.165Z,62402.38
2022-09-10T13:31:18.525Z,62402.38
2022-09-10T13:34:07.886Z,62402.38
2022-09-10T13:36:44.720Z,62402.38
2022-09-10T13:39:31.748Z,62402.38
2022-09-10T13:42:35.628Z,62402.38
2022-09-10T13:45:21.256Z,62402.38
2022-09-10T13:47:54.369Z,62402.38
2022-09-10T13:50:24.636Z,62402.38
2022-09-10T13:52:56.234Z,62402.38
2022-09-10T13:55:26.197Z,62402.38
2022-09-10T13:57:58.051Z,62402.38
2022-09-10T14:00:27.776Z,62402.38
2022-09-10T14:02:56.322Z,62402.38
2022-09-10T14:05:31.001Z,97466.44
2022-09-10T14:08:01.845Z,62402.38
2022-09-10T14:10:29.439Z,97474.84
2022-09-10T14:12:58.835Z,97469.44
2022-09-10T14:15:49.777Z,97467.38
2022-09-10T14:18:17.798Z,97458.22
2022-09-10T14:20:44.926Z,62402.38
2022-09-10T14:23:15.597Z,62402.38
2022-09-10T14:25:45.417Z,62402.38
2022-09-10T14:28:21.986Z,62402.38
2022-09-10T14:30:50.831Z,62402.38
2022-09-10T14:33:29.871Z,62402.38
2022-09-10T14:35:58.846Z,62402.38
2022-09-10T14:38:29.839Z,62402.38
2022-09-10T14:40:58.966Z,62402.38
2022-09-10T14:43:30.780Z,62402.38
2022-09-10T14:45:58.546Z,97506.22
2022-09-10T14:48:32.575Z,97508.81
2022-09-10T14:51:18.997Z,97501.13
2022-09-10T14:53:51.715Z,62402.38
2022-09-10T14:56:23.745Z,62402.38
2022-09-10T14:58:57.664Z,62402.38
2022-09-10T15:01:25.773Z,62402.38
2022-09-10T15:03:54.052Z,62402.38
2022-09-10T15:06:26.060Z,62402.38
2022-09-10T15:08:56.298Z,62402.38
2022-09-10T15:11:25.854Z,62402.38
2022-09-10T15:13:56.065Z,62402.38
2022-09-10T15:16:23.693Z,62402.38
2022-09-10T15:18:50.527Z,62402.38
2022-09-10T15:21:17.510Z,62402.38
2022-09-10T15:23:44.793Z,62402.38
2022-09-10T15:26:13.873Z,62402.38
2022-09-10T15:28:41.598Z,62402.38
2022-09-10T15:31:11.771Z,62402.38
2022-09-10T15:33:40.150Z,62402.38
2022-09-10T15:36:07.978Z,62402.38
2022-09-10T15:38:34.877Z,62402.38
2022-09-10T15:41:12.522Z,62402.38
2022-09-10T15:43:45.241Z,97466.84
2022-09-10T15:46:16.034Z,62402.38
2022-09-10T15:48:43.361Z,62402.38
2022-09-10T15:51:15.046Z,62402.38
2022-09-10T15:53:42.641Z,62402.38
2022-09-10T15:56:12.302Z,62402.38
2022-09-10T15:58:39.609Z,62402.38
2022-09-10T16:01:09.194Z,62402.38
2022-09-10T16:03:38.794Z,62402.38
2022-09-10T16:06:07.621Z,62402.38
2022-09-10T16:08:34.677Z,62402.38
2022-09-10T16:11:07.857Z,62402.38
2022-09-10T16:13:35.621Z,62402.38
2022-09-10T16:16:05.377Z,62402.38
2022-09-10T16:18:33.025Z,97466.84
2022-09-10T16:21:09.502Z,97466.84
2022-09-10T16:23:37.187Z,62402.38
2022-09-10T16:26:05.898Z,62402.38
2022-09-10T16:28:33.261Z,62402.38
2022-09-10T16:31:14.261Z,62402.38
2022-09-10T16:33:41.759Z,62402.38
2022-09-10T16:36:10.958Z,62402.38
2022-09-10T16:38:37.921Z,62402.38
2022-09-10T16:41:06.682Z,62402.38
2022-09-10T16:43:35.420Z,62402.38
2022-09-10T16:46:03.628Z,62402.38
2022-09-10T16:48:31.374Z,62402.38
2022-09-10T16:51:02.272Z,62402.38
2022-09-10T16:53:30.590Z,62402.38
2022-09-10T16:56:01.532Z,62402.38
2022-09-10T16:58:31.808Z,62402.38
2022-09-10T17:01:01.098Z,62402.38
2022-09-10T17:03:33.416Z,62402.38
2022-09-10T17:06:00.368Z,62402.38
2022-09-10T17:08:29.225Z,62402.38
2022-09-10T17:10:58.648Z,62402.38
2022-09-10T17:13:26.163Z,62402.38
2022-09-10T17:16:11.798Z,62402.38
2022-09-10T17:18:38.935Z,62402.38
2022-09-10T17:21:06.755Z,62402.38
2022-09-10T17:23:33.709Z,97466.84
2022-09-10T17:26:06.342Z,97483.84
2022-09-10T17:28:33.324Z,97483.88
2022-09-10T17:31:00.707Z,97479.22
2022-09-10T17:33:27.823Z,97477.00
2022-09-10T17:35:56.628Z,97467.06
2022-09-10T17:38:25.065Z,97470.28
2022-09-10T17:40:55.464Z,97463.84
2022-09-10T17:43:27.296Z,97465.47
2022-09-10T17:45:55.423Z,97466.13
2022-09-10T17:48:27.601Z,97466.28
2022-09-10T17:50:55.213Z,97463.41
2022-09-10T17:53:22.228Z,97478.59
2022-09-10T17:55:49.276Z,97474.91
2022-09-10T17:58:16.651Z,97474.44
2022-09-10T18:00:49.795Z,97483.41
2022-09-10T18:03:17.789Z,97486.91
2022-09-10T18:05:46.050Z,97494.13
2022-09-10T18:08:13.351Z,97481.31
2022-09-10T18:10:40.463Z,62402.38
2022-09-10T18:13:08.242Z,97498.13
2022-09-10T18:15:40.205Z,97500.53
2022-09-10T18:18:09.381Z,62402.38
2022-09-10T18:20:36.228Z,97369.69
2022-09-10T18:23:03.889Z,62402.38
2022-09-10T18:25:31.209Z,97500.53
2022-09-10T18:27:58.642Z,97521.34
2022-09-10T18:30:28.614Z,97517.50
2022-09-10T18:32:55.741Z,97525.66
2022-09-10T18:35:25.825Z,62402.38
2022-09-10T18:37:52.742Z,62402.38
2022-09-10T18:40:20.099Z,62402.38
2022-09-10T18:42:48.142Z,62402.38
2022-09-10T18:45:15.133Z,62402.38
2022-09-10T18:47:45.278Z,62402.38
2022-09-10T18:50:13.369Z,62402.38
2022-09-10T18:52:41.716Z,62402.38
2022-09-10T18:55:09.385Z,62402.38
2022-09-10T18:57:36.608Z,62402.38
2022-09-10T19:00:03.979Z,62402.38
2022-09-10T19:02:31.015Z,62402.38
2022-09-10T19:05:14.724Z,62402.38
2022-09-10T19:07:43.013Z,62402.38
2022-09-10T19:10:10.286Z,62402.38
2022-09-10T19:12:37.290Z,62402.38
2022-09-10T19:15:04.840Z,62402.38
2022-09-10T19:17:31.739Z,62402.38
2022-09-10T19:19:58.689Z,62402.38
2022-09-10T19:22:25.794Z,62402.38
2022-09-10T19:24:55.911Z,62402.38
2022-09-10T19:27:24.024Z,62402.38
2022-09-10T19:29:52.384Z,97539.66
2022-09-10T19:32:20.410Z,97551.66
2022-09-10T19:34:50.112Z,97552.94
2022-09-10T19:37:17.303Z,97550.84
2022-09-10T19:39:44.681Z,97561.91
2022-09-10T19:42:13.175Z,97561.56
2022-09-10T19:44:40.154Z,97565.41
2022-09-10T19:47:07.102Z,97557.25
2022-09-10T19:49:34.427Z,97568.63
2022-09-10T19:52:01.845Z,97570.22
2022-09-10T19:54:29.900Z,97557.75
2022-09-10T19:56:56.917Z,97559.03
2022-09-10T19:59:25.273Z,97575.03
2022-09-10T20:01:52.327Z,97567.50
2022-09-10T20:04:19.397Z,97568.31
2022-09-10T20:06:48.191Z,62402.38
2022-09-10T20:09:17.293Z,62402.38
2022-09-10T20:11:46.757Z,97570.00
2022-09-10T20:14:15.844Z,97578.47
2022-09-10T20:16:45.264Z,97575.44
2022-09-10T20:19:14.553Z,97571.94
2022-09-10T20:21:42.388Z,97573.88
2022-09-10T20:24:09.996Z,97576.09
2022-09-10T20:26:38.592Z,97584.84
2022-09-10T20:29:07.686Z,97572.88
2022-09-10T20:31:36.786Z,97573.38
2022-09-10T20:34:07.049Z,97580.53
2022-09-10T20:36:35.729Z,97575.59
2022-09-10T20:39:02.939Z,97585.34
2022-09-10T20:41:32.867Z,97571.72
2022-09-10T20:44:01.816Z,97585.50
2022-09-10T20:46:30.528Z,97585.50
2022-09-10T20:49:03.221Z,97589.81
2022-09-10T20:51:34.431Z,97581.53
2022-09-10T20:54:01.472Z,97580.06
2022-09-10T20:56:29.105Z,97580.34
2022-09-10T20:58:56.912Z,97583.91
2022-09-10T21:01:25.544Z,97574.91
2022-09-10T21:03:54.637Z,97589.00
2022-09-10T21:06:25.182Z,97577.97
2022-09-10T21:08:56.191Z,97574.13
2022-09-10T21:11:24.212Z,97577.03
2022-09-10T21:13:55.803Z,97574.44
2022-09-10T21:16:24.611Z,97576.41
2022-09-10T21:18:54.795Z,97576.69
2022-09-10T21:21:23.534Z,97582.78
2022-09-10T21:23:51.972Z,97582.28
2022-09-10T21:26:22.180Z,97589.16
2022-09-10T21:28:51.019Z,97586.75
2022-09-10T21:31:17.916Z,97589.28
2022-09-10T21:33:46.251Z,97589.41
2022-09-10T21:36:15.334Z,97599.81
2022-09-10T21:38:46.463Z,97600.59
2022-09-10T21:41:15.830Z,97606.03
2022-09-10T21:43:47.108Z,97611.47
2022-09-10T21:46:15.078Z,97599.81
2022-09-10T21:48:42.974Z,97597.88
2022-09-10T21:51:13.230Z,97606.53
2022-09-10T21:53:41.481Z,97610.69
2022-09-10T21:56:10.183Z,97603.50
2022-09-10T21:58:37.393Z,97610.03
2022-09-10T22:01:12.107Z,97603.81
2022-09-10T22:03:39.959Z,97612.94
2022-09-10T22:06:08.383Z,97609.13
2022-09-10T22:08:36.367Z,97610.41
2022-09-10T22:11:07.819Z,97607.69
2022-09-10T22:13:35.017Z,97610.09
2022-09-10T22:16:02.712Z,97618.56
2022-09-10T22:18:31.043Z,97621.47
2022-09-10T22:21:01.550Z,97623.06
2022-09-10T22:23:29.453Z,97620.84
2022-09-10T22:26:02.923Z,97621.47
2022-09-10T22:28:33.124Z,97626.91
2022-09-10T22:31:07.204Z,97627.56
2022-09-10T22:33:36.134Z,97629.78
2022-09-10T22:36:13.989Z,97629.00
2022-09-10T22:38:41.825Z,97630.91
2022-09-10T22:41:10.249Z,97634.44
2022-09-10T22:43:38.618Z,97645.78
2022-09-10T22:46:09.253Z,97648.03
2022-09-10T22:48:39.652Z,97652.03
2022-09-10T22:51:07.555Z,97655.69
2022-09-10T22:53:35.126Z,97648.66
2022-09-10T22:56:02.730Z,97662.25
2022-09-10T22:58:29.578Z,97655.69
2022-09-10T23:00:56.581Z,97655.19
2022-09-10T23:03:23.518Z,97661.91
2022-09-10T23:06:02.096Z,97664.63
2022-09-10T23:08:28.949Z,97667.69
2022-09-10T23:10:55.817Z,97673.75
2022-09-10T23:13:22.673Z,97675.84
2022-09-10T23:15:49.574Z,97681.28
2022-09-10T23:18:16.454Z,97684.63
2022-09-10T23:20:44.056Z,97682.88
2022-09-10T23:23:12.217Z,97688.94
2022-09-10T23:25:39.399Z,97695.78
2022-09-10T23:28:07.358Z,97684.13
2022-09-10T23:30:35.795Z,97696.44
2022-09-10T23:33:02.602Z,97691.78
2022-09-10T23:35:29.408Z,97698.03
2022-09-10T23:37:56.183Z,97692.59
2022-09-10T23:40:29.956Z,97700.25
2022-09-10T23:42:59.077Z,97699.44
2022-09-10T23:45:25.879Z,97701.97
2022-09-10T23:47:52.653Z,97708.72
2022-09-10T23:50:19.515Z,97709.00
2022-09-10T23:52:46.327Z,97703.91
2022-09-10T23:55:13.399Z,97706.44
2022-09-10T23:57:41.585Z,97707.72
